Time;durP1;ratioP1;P1;durP2;ratioP2;P2;SDS_P1;SDS_P2;PMS_P1;PMS_P2;Temp;Humidity;BMP_temperature;BMP_pressure;BME280_temperature;BME280_humidity;BME280_pressure;Samples;Min_cycle;Max_cycle;Signal;HPM_P1;HPM_P2
2021/03/23 00:01:17;;;;;;;12.93;7.20;;;5.10;99.90;;;;;;5088771;28;20222;-75
2021/03/23 00:03:46;;;;;;;11.07;7.80;;;5.00;99.90;;;;;;5090567;28;20262;-75
2021/03/23 00:06:15;;;;;;;12.57;7.80;;;5.00;99.90;;;;;;5091997;28;20471;-75
2021/03/23 00:08:49;;;;;;;17.27;7.87;;;5.10;99.90;;;;;;5095453;28;20496;-75
2021/03/23 00:11:22;;;;;;;15.77;7.03;;;5.10;99.90;;;;;;5097905;28;20409;-75
2021/03/23 00:13:49;;;;;;;12.70;8.20;;;5.10;99.90;;;;;;5083467;28;20519;-75
2021/03/23 00:16:18;;;;;;;14.30;8.80;;;5.10;99.90;;;;;;5081293;28;20419;-75
2021/03/23 00:18:44;;;;;;;15.63;7.67;;;5.00;99.90;;;;;;5082169;28;20403;-75
2021/03/23 00:21:10;;;;;;;18.30;8.27;;;5.00;99.90;;;;;;5082490;28;20787;-75
2021/03/23 00:23:37;;;;;;;15.90;8.27;;;5.00;99.90;;;;;;5081777;28;20468;-75
2021/03/23 00:26:03;;;;;;;14.97;8.97;;;5.00;99.90;;;;;;5083811;28;20421;-75
2021/03/23 00:28:29;;;;;;;17.67;8.57;;;5.00;99.90;;;;;;5079963;28;20443;-75
2021/03/23 00:30:55;;;;;;;17.93;7.93;;;5.00;99.90;;;;;;5085165;28;21008;-75
2021/03/23 00:33:22;;;;;;;11.93;8.27;;;5.00;99.90;;;;;;5084199;28;20914;-75
2021/03/23 00:35:51;;;;;;;13.87;8.83;;;5.00;99.90;;;;;;5080581;28;20421;-75
2021/03/23 00:38:17;;;;;;;17.40;8.67;;;5.00;99.90;;;;;;5081947;28;20856;-75
2021/03/23 00:40:42;;;;;;;15.17;9.53;;;5.00;99.90;;;;;;5082651;28;20544;-75
2021/03/23 00:43:09;;;;;;;20.73;8.73;;;5.00;99.90;;;;;;5084483;28;20501;-74
2021/03/23 00:45:39;;;;;;;16.07;9.23;;;5.00;99.90;;;;;;5083200;28;20236;-75
2021/03/23 00:48:06;;;;;;;15.10;8.50;;;5.00;99.90;;;;;;5081445;28;20421;-75
2021/03/23 00:50:31;;;;;;;16.00;9.50;;;5.00;99.90;;;;;;5083385;28;20465;-75
2021/03/23 00:52:57;;;;;;;17.40;8.93;;;5.00;99.90;;;;;;5080267;28;20409;-75
2021/03/23 00:55:23;;;;;;;16.20;9.77;;;5.00;99.90;;;;;;5084071;28;20522;-74
2021/03/23 00:57:48;;;;;;;15.00;9.60;;;5.00;99.90;;;;;;5079508;28;20201;-75
2021/03/23 01:00:16;;;;;;;16.50;8.63;;;5.00;99.90;;;;;;5081799;28;20179;-74
2021/03/23 01:02:43;;;;;;;17.40;7.77;;;5.00;99.90;;;;;;5081773;28;20238;-74
2021/03/23 01:05:09;;;;;;;16.40;10.13;;;5.00;99.90;;;;;;5083955;28;20425;-75
2021/03/23 01:07:35;;;;;;;13.50;8.63;;;5.00;99.90;;;;;;5078017;28;20425;-74
2021/03/23 01:10:01;;;;;;;14.63;7.87;;;5.00;99.90;;;;;;5083327;28;20482;-75
2021/03/23 01:12:27;;;;;;;15.93;9.03;;;5.00;99.90;;;;;;5079888;28;20203;-74
2021/03/23 01:14:52;;;;;;;21.57;8.73;;;5.00;99.90;;;;;;5082622;28;20415;-75
2021/03/23 01:17:18;;;;;;;16.87;9.60;;;5.00;99.90;;;;;;5083596;28;20183;-74
2021/03/23 01:19:43;;;;;;;13.07;8.43;;;5.00;99.90;;;;;;5081351;28;20193;-75
2021/03/23 01:22:09;;;;;;;14.33;10.00;;;5.00;99.90;;;;;;5081269;28;20203;-75
2021/03/23 01:24:35;;;;;;;14.87;9.33;;;5.00;99.90;;;;;;5081880;28;20616;-75
2021/03/23 01:27:01;;;;;;;20.37;9.80;;;5.00;99.90;;;;;;5080178;28;20175;-74
2021/03/23 01:29:28;;;;;;;13.90;8.80;;;5.00;99.90;;;;;;5083448;28;20463;-75
2021/03/23 01:31:54;;;;;;;22.23;10.70;;;4.90;99.90;;;;;;5079472;28;20437;-72
2021/03/23 01:34:20;;;;;;;22.37;9.60;;;5.00;99.90;;;;;;5082654;28;20450;-74
2021/03/23 01:36:45;;;;;;;26.03;11.60;;;4.90;99.90;;;;;;5080859;28;20180;-75
2021/03/23 01:39:11;;;;;;;21.77;10.10;;;5.00;99.90;;;;;;5081103;28;20541;-74
2021/03/23 01:41:36;;;;;;;21.70;11.90;;;4.90;99.90;;;;;;5081913;28;20590;-75
2021/03/23 01:44:02;;;;;;;19.60;10.90;;;4.90;99.90;;;;;;5079813;28;20181;-74
2021/03/23 01:46:47;;;;;;;20.77;10.60;;;4.90;99.90;;;;;;5083254;28;20565;-75
2021/03/23 01:49:23;;;;;;;25.07;10.90;;;4.80;99.90;;;;;;5081457;28;20518;-75
2021/03/23 01:51:52;;;;;;;14.27;8.97;;;4.80;99.90;;;;;;5078961;28;20420;-75
2021/03/23 01:54:30;;;;;;;18.63;10.90;;;4.90;99.90;;;;;;5081918;28;20421;-74
2021/03/23 01:56:59;;;;;;;22.43;10.97;;;4.90;99.90;;;;;;5079380;28;20545;-74
2021/03/23 01:59:26;;;;;;;20.17;11.17;;;4.90;99.90;;;;;;5079589;28;20426;-75
2021/03/23 02:01:55;;;;;;;25.37;12.50;;;4.90;99.90;;;;;;5082241;28;20448;-75
2021/03/23 02:04:22;;;;;;;25.37;12.50;;;5.00;99.90;;;;;;5079674;28;20437;-75
2021/03/23 02:06:48;;;;;;;30.13;12.30;;;5.00;99.90;;;;;;5081816;28;20521;-75
2021/03/23 02:09:15;;;;;;;24.73;13.80;;;4.90;99.90;;;;;;5080375;28;20467;-75
2021/03/23 02:11:45;;;;;;;26.83;12.70;;;4.90;99.90;;;;;;5080665;28;20638;-75
2021/03/23 02:14:12;;;;;;;28.07;15.73;;;4.90;99.90;;;;;;5080841;28;20417;-75
2021/03/23 02:16:37;;;;;;;24.30;13.00;;;4.90;99.90;;;;;;5080393;28;20419;-74
2021/03/23 02:19:05;;;;;;;24.97;13.67;;;4.90;99.90;;;;;;5081897;28;20784;-74
2021/03/23 02:21:31;;;;;;;32.80;14.47;;;4.90;99.90;;;;;;5078300;28;20300;-75
2021/03/23 02:23:56;;;;;;;26.40;14.10;;;4.90;99.90;;;;;;5082096;28;20582;-75
2021/03/23 02:26:30;;;;;;;30.67;16.80;;;4.90;99.90;;;;;;5078078;28;20748;-75
2021/03/23 02:29:00;;;;;;;26.60;14.40;;;4.90;99.90;;;;;;5078911;28;20212;-75
2021/03/23 02:31:31;;;;;;;34.37;15.07;;;4.90;99.90;;;;;;5079170;28;20427;-75
2021/03/23 02:33:57;;;;;;;28.70;16.77;;;4.90;99.90;;;;;;5078812;28;20412;-75
2021/03/23 02:36:25;;;;;;;26.87;15.33;;;4.90;99.90;;;;;;5083202;28;20419;-75
2021/03/23 02:38:50;;;;;;;29.23;14.53;;;4.90;99.90;;;;;;5083034;28;20814;-75
2021/03/23 02:41:16;;;;;;;32.20;16.53;;;4.90;99.90;;;;;;5085458;28;20515;-74
2021/03/23 02:43:42;;;;;;;35.17;15.90;;;4.90;99.90;;;;;;5084174;28;20192;-74
2021/03/23 02:46:08;;;;;;;34.43;16.17;;;4.90;99.90;;;;;;5084243;28;20432;-75
2021/03/23 02:48:33;;;;;;;29.70;16.27;;;4.80;99.90;;;;;;5085564;28;20180;-75
2021/03/23 02:50:59;;;;;;;33.50;16.50;;;4.90;99.90;;;;;;5082751;28;20252;-74
2021/03/23 02:53:24;;;;;;;32.63;16.70;;;4.90;99.90;;;;;;5086040;28;20647;-75
2021/03/23 02:55:50;;;;;;;30.13;16.83;;;4.90;99.90;;;;;;5081974;28;20176;-75
2021/03/23 02:58:16;;;;;;;32.67;17.93;;;4.80;99.90;;;;;;5084954;28;20182;-75
2021/03/23 03:00:42;;;;;;;37.00;17.47;;;4.90;99.90;;;;;;5084180;28;20245;-75
2021/03/23 03:03:07;;;;;;;31.07;16.67;;;4.80;99.90;;;;;;5083543;28;20179;-75
2021/03/23 03:05:33;;;;;;;31.77;17.33;;;4.80;99.90;;;;;;5085538;28;20449;-75
2021/03/23 03:07:59;;;;;;;37.37;17.27;;;4.80;99.90;;;;;;5082315;28;20190;-75
2021/03/23 03:10:24;;;;;;;36.33;16.83;;;4.90;99.90;;;;;;5085785;28;20206;-74
2021/03/23 03:12:50;;;;;;;30.93;16.97;;;4.90;99.90;;;;;;5082655;28;20760;-75
2021/03/23 03:15:16;;;;;;;31.33;17.60;;;4.90;99.90;;;;;;5085102;28;20180;-75
2021/03/23 03:17:41;;;;;;;35.57;17.80;;;4.80;99.90;;;;;;5083784;28;20184;-74
2021/03/23 03:20:09;;;;;;;38.43;17.90;;;4.80;99.90;;;;;;5083389;28;20570;-75
2021/03/23 03:22:34;;;;;;;31.60;16.97;;;4.80;99.90;;;;;;5084495;28;20211;-75
2021/03/23 03:25:00;;;;;;;39.07;18.23;;;4.80;99.90;;;;;;5082184;28;21010;-75
2021/03/23 03:27:26;;;;;;;34.23;16.80;;;4.70;99.90;;;;;;5085634;28;20204;-73
2021/03/23 03:29:51;;;;;;;37.87;16.70;;;4.80;99.90;;;;;;5082374;28;20205;-75
2021/03/23 03:32:17;;;;;;;33.33;16.47;;;4.80;99.90;;;;;;5084378;28;20197;-75
2021/03/23 03:34:43;;;;;;;29.23;16.50;;;4.80;99.90;;;;;;5083501;28;20181;-75
2021/03/23 03:37:08;;;;;;;40.60;17.43;;;4.80;99.90;;;;;;5081989;28;20387;-74
2021/03/23 03:39:34;;;;;;;35.83;16.80;;;4.80;99.90;;;;;;5084615;28;20228;-75
2021/03/23 03:41:59;;;;;;;39.30;19.80;;;4.80;99.90;;;;;;5081542;28;20661;-74
2021/03/23 03:44:25;;;;;;;34.97;17.83;;;4.80;99.90;;;;;;5085412;28;20186;-75
2021/03/23 03:46:50;;;;;;;37.40;18.20;;;4.80;99.90;;;;;;5081742;28;20205;-73
2021/03/23 03:49:16;;;;;;;39.07;17.20;;;4.70;99.90;;;;;;5083748;28;20203;-75
2021/03/23 03:51:41;;;;;;;34.03;17.67;;;4.80;99.90;;;;;;5083284;28;20248;-75
2021/03/23 03:54:07;;;;;;;37.20;16.47;;;4.80;99.90;;;;;;5082562;28;20185;-74
2021/03/23 03:56:33;;;;;;;35.50;19.10;;;4.80;99.90;;;;;;5084588;28;20643;-75
2021/03/23 03:58:58;;;;;;;35.00;19.27;;;4.80;99.90;;;;;;5081405;28;20178;-74
2021/03/23 04:01:24;;;;;;;38.13;18.10;;;4.70;99.90;;;;;;5084977;28;20211;-75
2021/03/23 04:03:49;;;;;;;34.27;17.73;;;4.70;99.90;;;;;;5081771;28;20186;-75
2021/03/23 04:06:15;;;;;;;38.37;17.43;;;4.70;99.90;;;;;;5083680;28;20178;-75
2021/03/23 04:08:41;;;;;;;30.03;17.03;;;4.70;99.90;;;;;;5082956;28;20787;-75
2021/03/23 04:11:09;;;;;;;30.67;16.63;;;4.70;99.90;;;;;;5082328;28;20185;-75
2021/03/23 04:13:34;;;;;;;29.10;16.23;;;4.80;99.90;;;;;;5082704;28;20682;-75
2021/03/23 04:16:00;;;;;;;35.40;17.47;;;4.80;99.90;;;;;;5081344;28;20430;-75
2021/03/23 04:18:27;;;;;;;33.97;16.97;;;4.80;99.90;;;;;;5084508;28;20546;-75
2021/03/23 04:20:55;;;;;;;40.70;18.03;;;4.70;99.90;;;;;;5081058;28;20886;-75
2021/03/23 04:23:47;;;;;;;35.00;17.17;;;4.70;99.90;;;;;;5082278;28;20432;-76
2021/03/23 04:26:13;;;;;;;30.77;16.07;;;4.70;99.90;;;;;;5079077;28;20432;-75
2021/03/23 04:28:39;;;;;;;39.20;17.70;;;4.70;99.90;;;;;;5084660;28;20429;-75
2021/03/23 04:31:06;;;;;;;34.60;15.63;;;4.70;99.90;;;;;;5083996;28;20214;-75
2021/03/23 04:33:32;;;;;;;36.00;17.80;;;4.70;99.90;;;;;;5081504;28;20424;-75
2021/03/23 04:36:06;;;;;;;32.30;18.33;;;4.70;99.90;;;;;;5084964;28;20392;-75
2021/03/23 04:38:34;;;;;;;37.43;15.63;;;4.70;99.90;;;;;;5081442;28;20424;-75
2021/03/23 04:41:04;;;;;;;24.27;16.20;;;4.70;99.90;;;;;;5083753;28;20454;-75
2021/03/23 04:43:34;;;;;;;29.20;15.33;;;4.70;99.90;;;;;;5080819;28;20426;-74
2021/03/23 04:46:00;;;;;;;35.90;17.00;;;4.70;99.90;;;;;;5080673;28;20482;-75
2021/03/23 04:48:26;;;;;;;31.33;16.40;;;4.70;99.90;;;;;;5084511;28;20773;-75
2021/03/23 04:50:53;;;;;;;29.77;18.10;;;4.70;99.90;;;;;;5080330;28;20535;-74
2021/03/23 04:53:40;;;;;;;35.10;17.90;;;4.70;99.90;;;;;;5083219;28;20422;-75
2021/03/23 04:56:07;;;;;;;41.33;19.33;;;4.70;99.90;;;;;;5081672;28;20987;-75
2021/03/23 04:58:33;;;;;;;34.37;16.40;;;4.60;99.90;;;;;;5082182;28;20436;-75
2021/03/23 05:01:00;;;;;;;31.00;16.57;;;4.70;99.90;;;;;;5079940;28;20516;-75
2021/03/23 05:03:31;;;;;;;31.57;16.73;;;4.70;99.90;;;;;;5080264;28;20182;-75
2021/03/23 05:06:03;;;;;;;33.30;18.00;;;4.60;99.90;;;;;;5080282;28;20402;-75
2021/03/23 05:08:29;;;;;;;32.17;15.90;;;4.70;99.90;;;;;;5080203;28;20436;-75
2021/03/23 05:10:54;;;;;;;31.70;16.30;;;4.70;99.90;;;;;;5083434;28;20467;-74
2021/03/23 05:13:20;;;;;;;38.10;18.43;;;4.70;99.90;;;;;;5080291;28;20200;-74
2021/03/23 05:15:45;;;;;;;33.13;17.00;;;4.70;99.90;;;;;;5077698;28;20185;-74
2021/03/23 05:18:12;;;;;;;33.93;16.80;;;4.70;99.90;;;;;;5081509;28;20197;-73
2021/03/23 05:20:37;;;;;;;36.40;17.97;;;4.70;99.90;;;;;;5082144;28;20212;-72
2021/03/23 05:23:03;;;;;;;29.93;17.43;;;4.80;99.90;;;;;;5080123;28;20454;-72
2021/03/23 05:25:29;;;;;;;35.33;15.40;;;4.80;99.90;;;;;;5083504;28;20814;-72
2021/03/23 05:27:54;;;;;;;38.60;19.07;;;4.80;99.90;;;;;;5079456;28;20173;-72
2021/03/23 05:30:20;;;;;;;36.40;17.07;;;4.80;99.90;;;;;;5081376;28;20213;-72
2021/03/23 05:32:46;;;;;;;31.77;16.33;;;4.80;99.90;;;;;;5079110;28;20188;-72
2021/03/23 05:35:15;;;;;;;36.20;20.27;;;4.80;99.90;;;;;;5081488;28;20780;-73
2021/03/23 05:37:41;;;;;;;35.27;19.30;;;4.80;99.90;;;;;;5081263;28;20606;-72
2021/03/23 05:40:07;;;;;;;41.87;19.73;;;4.80;99.90;;;;;;5079416;28;20422;-72
2021/03/23 05:42:38;;;;;;;35.37;19.30;;;4.90;99.90;;;;;;5082512;28;20699;-71
2021/03/23 05:45:14;;;;;;;30.70;16.07;;;4.90;99.90;;;;;;5080480;28;20400;-72
2021/03/23 05:47:42;;;;;;;42.20;18.73;;;4.90;99.90;;;;;;5081461;28;20418;-72
2021/03/23 05:50:07;;;;;;;38.80;17.47;;;4.90;99.90;;;;;;5080574;28;20821;-72
2021/03/23 05:52:45;;;;;;;28.03;16.90;;;4.80;99.90;;;;;;5082209;28;20447;-72
2021/03/23 05:55:28;;;;;;;32.63;18.27;;;4.90;99.90;;;;;;5081039;28;20262;-72
2021/03/23 05:57:55;;;;;;;36.60;18.57;;;4.90;99.90;;;;;;5079090;28;20414;-73
2021/03/23 06:00:36;;;;;;;39.10;19.10;;;4.90;99.90;;;;;;5082246;28;20457;-72
2021/03/23 06:03:14;;;;;;;36.17;19.00;;;5.00;99.90;;;;;;5079244;28;20508;-73
2021/03/23 06:05:46;;;;;;;38.07;18.13;;;5.00;99.90;;;;;;5081273;28;20507;-72
2021/03/23 06:08:25;;;;;;;28.93;15.90;;;5.00;99.90;;;;;;5079564;28;20428;-72
2021/03/23 06:11:17;;;;;;;37.83;17.67;;;5.00;99.90;;;;;;5079179;28;20465;-73
2021/03/23 06:13:46;;;;;;;33.13;17.77;;;5.10;99.90;;;;;;5080533;28;20548;-72
2021/03/23 06:16:32;;;;;;;29.90;15.77;;;5.10;99.90;;;;;;5081028;28;20839;-73
2021/03/23 06:19:11;;;;;;;35.83;18.27;;;5.10;99.90;;;;;;5078900;28;21200;-72
2021/03/23 06:21:52;;;;;;;42.90;19.03;;;5.10;99.90;;;;;;5079882;28;20437;-72
2021/03/23 06:24:23;;;;;;;32.33;17.50;;;5.20;99.90;;;;;;5079764;28;20447;-73
2021/03/23 06:27:17;;;;;;;29.67;16.30;;;5.20;99.90;;;;;;5081538;28;20431;-72
2021/03/23 06:30:08;;;;;;;41.10;18.50;;;5.30;99.90;;;;;;5071224;28;20476;-72
2021/03/23 06:32:50;;;;;;;33.37;17.03;;;5.30;99.90;;;;;;5086069;28;20443;-72
2021/03/23 06:35:21;;;;;;;38.77;17.93;;;5.30;99.90;;;;;;5087089;28;20415;-72
2021/03/23 06:37:46;;;;;;;34.87;18.63;;;5.40;99.90;;;;;;5081058;28;20421;-72
2021/03/23 06:40:24;;;;;;;44.33;19.30;;;5.40;99.90;;;;;;5080901;28;20447;-73
2021/03/23 06:42:52;;;;;;;32.20;17.33;;;5.40;99.90;;;;;;5081294;28;20190;-72
2021/03/23 06:45:32;;;;;;;36.10;19.67;;;5.40;99.90;;;;;;5079943;28;20500;-73
2021/03/23 06:48:20;;;;;;;42.03;19.40;;;5.40;99.90;;;;;;5081216;28;20446;-72
2021/03/23 06:50:46;;;;;;;33.23;18.50;;;5.50;99.90;;;;;;5067389;28;20467;-73
2021/03/23 06:53:19;;;;;;;41.10;20.10;;;5.50;99.90;;;;;;5080178;28;20430;-72
2021/03/23 06:55:46;;;;;;;45.17;19.20;;;5.60;99.90;;;;;;5079908;28;20446;-72
2021/03/23 06:58:28;;;;;;;39.67;20.70;;;5.60;99.90;;;;;;5080112;28;20418;-72
2021/03/23 07:01:24;;;;;;;51.33;19.10;;;5.70;99.90;;;;;;5078541;28;20510;-73
2021/03/23 07:03:55;;;;;;;31.23;17.50;;;5.70;99.90;;;;;;5080925;28;20485;-72
2021/03/23 07:06:28;;;;;;;35.90;18.40;;;5.80;99.90;;;;;;5078134;28;20419;-72
2021/03/23 07:09:21;;;;;;;38.23;18.87;;;5.90;99.90;;;;;;5081717;28;20421;-72
2021/03/23 07:11:59;;;;;;;37.53;16.67;;;5.90;99.90;;;;;;5080814;28;20457;-72
2021/03/23 07:14:39;;;;;;;37.37;18.23;;;6.00;99.90;;;;;;5078393;28;20513;-73
2021/03/23 07:17:11;;;;;;;39.63;21.40;;;6.00;99.90;;;;;;5079162;28;20969;-72
2021/03/23 07:19:49;;;;;;;45.50;20.57;;;6.00;99.90;;;;;;5080687;28;20430;-72
2021/03/23 07:22:29;;;;;;;35.20;17.47;;;6.10;99.90;;;;;;5080692;28;20533;-72
2021/03/23 07:24:57;;;;;;;44.80;20.43;;;6.10;99.90;;;;;;5080610;28;20451;-72
2021/03/23 07:27:28;;;;;;;35.83;18.67;;;6.20;99.90;;;;;;5095390;28;20427;-73
2021/03/23 07:30:27;;;;;;;36.20;18.47;;;6.20;99.90;;;;;;5092296;28;20462;-73
2021/03/23 07:32:58;;;;;;;44.70;20.60;;;6.20;99.90;;;;;;5085108;28;20971;-72
2021/03/23 07:35:31;;;;;;;36.10;18.90;;;6.20;99.90;;;;;;5082212;28;20505;-72
2021/03/23 07:38:22;;;;;;;41.67;20.33;;;6.30;99.90;;;;;;5083808;28;20506;-72
2021/03/23 07:40:51;;;;;;;40.20;18.83;;;6.30;99.90;;;;;;5097906;28;20507;-72
2021/03/23 07:43:21;;;;;;;37.70;20.03;;;6.40;99.90;;;;;;5085973;28;20422;-72
2021/03/23 07:46:15;;;;;;;43.67;22.23;;;6.30;99.90;;;;;;5100201;28;20420;-72
2021/03/23 07:49:05;;;;;;;37.93;19.70;;;6.40;99.90;;;;;;5083002;28;20451;-72
2021/03/23 07:51:37;;;;;;;34.87;19.17;;;6.40;99.90;;;;;;5085961;28;20439;-72
2021/03/23 07:54:22;;;;;;;37.43;18.40;;;6.60;99.90;;;;;;5081881;28;20433;-72
2021/03/23 07:57:06;;;;;;;42.63;21.57;;;6.70;99.90;;;;;;5082523;28;20421;-72
2021/03/23 07:59:47;;;;;;;43.00;19.30;;;6.70;99.90;;;;;;5081870;28;20416;-72
2021/03/23 08:02:49;;;;;;;42.20;21.90;;;6.80;99.90;;;;;;5082891;28;20509;-71
2021/03/23 08:05:21;;;;;;;36.43;20.87;;;6.70;99.90;;;;;;5083717;28;20832;-72
2021/03/23 08:07:58;;;;;;;46.63;22.40;;;6.80;99.90;;;;;;5079675;28;20513;-70
2021/03/23 08:10:27;;;;;;;39.03;20.80;;;6.80;99.90;;;;;;5087614;28;20458;-69
2021/03/23 08:13:21;;;;;;;40.03;19.60;;;6.90;99.90;;;;;;5093868;28;20776;-71
2021/03/23 08:16:11;;;;;;;48.23;21.33;;;6.90;99.90;;;;;;5077840;28;20434;-71
2021/03/23 08:18:51;;;;;;;39.93;21.00;;;7.10;99.90;;;;;;5084404;28;20404;-71
2021/03/23 08:21:41;;;;;;;40.10;19.83;;;7.20;99.90;;;;;;5088433;28;20447;-71
2021/03/23 08:24:13;;;;;;;39.00;20.00;;;7.30;99.90;;;;;;5081147;28;20436;-71
2021/03/23 08:26:53;;;;;;;45.57;21.10;;;7.40;99.90;;;;;;5082809;28;20415;-71
2021/03/23 08:29:31;;;;;;;48.50;22.37;;;7.50;99.90;;;;;;5082928;28;20532;-71
2021/03/23 08:32:37;;;;;;;32.00;18.23;;;7.60;99.90;;;;;;5080194;28;20824;-71
2021/03/23 08:35:31;;;;;;;38.57;19.37;;;7.60;99.90;;;;;;5080513;28;20920;-71
2021/03/23 08:38:21;;;;;;;34.53;19.37;;;7.60;99.90;;;;;;5080047;28;20378;-71
2021/03/23 08:40:50;;;;;;;37.30;20.70;;;7.70;99.90;;;;;;5082422;28;20472;-71
2021/03/23 08:43:31;;;;;;;42.23;21.43;;;7.70;99.90;;;;;;5086742;28;20490;-70
2021/03/23 08:45:58;;;;;;;38.03;19.50;;;7.70;99.90;;;;;;5082442;28;20824;-70
2021/03/23 08:48:45;;;;;;;37.27;20.27;;;7.80;99.90;;;;;;5079599;28;20423;-71
2021/03/23 08:51:14;;;;;;;37.07;18.30;;;8.00;99.90;;;;;;5081786;28;20500;-70
2021/03/23 08:53:46;;;;;;;33.23;17.87;;;8.00;99.90;;;;;;5082000;28;20776;-70
2021/03/23 08:56:12;;;;;;;32.83;18.13;;;8.20;99.90;;;;;;5082465;28;20418;-71
2021/03/23 08:58:39;;;;;;;35.00;17.90;;;8.20;99.90;;;;;;5081489;28;20917;-71
2021/03/23 09:01:28;;;;;;;35.37;18.70;;;8.30;99.90;;;;;;5081736;28;20242;-72
2021/03/23 09:04:15;;;;;;;30.77;17.20;;;8.50;99.90;;;;;;5077302;28;21225;-72
2021/03/23 09:07:01;;;;;;;25.60;14.43;;;8.60;99.90;;;;;;5082621;28;20999;-71
2021/03/23 09:09:27;;;;;;;27.17;14.53;;;8.60;99.90;;;;;;5077754;28;20475;-71
2021/03/23 09:12:11;;;;;;;30.33;16.40;;;8.80;99.90;;;;;;5085870;28;20447;-72
2021/03/23 09:15:20;;;;;;;33.17;15.47;;;8.60;99.90;;;;;;5082704;28;20559;-72
2021/03/23 09:18:05;;;;;;;29.60;15.63;;;8.60;99.90;;;;;;5078580;28;20450;-71
2021/03/23 09:20:30;;;;;;;28.10;14.67;;;8.70;99.90;;;;;;5079689;28;20786;-71
2021/03/23 09:25:47;;;;;;;28.43;15.57;;;8.80;99.90;;;;;;5074186;28;20187;-71
2021/03/23 09:28:33;;;;;;;28.93;13.50;;;8.70;99.90;;;;;;5084184;28;20421;-71
2021/03/23 09:30:59;;;;;;;29.87;13.70;;;8.60;99.90;;;;;;5079057;28;20464;-72
2021/03/23 09:33:25;;;;;;;24.17;11.67;;;8.60;99.90;;;;;;5081183;28;20532;-71
2021/03/23 09:36:13;;;;;;;11.87;7.77;;;8.90;99.90;;;;;;5079367;28;20494;-71
2021/03/23 09:38:45;;;;;;;17.37;9.30;;;9.10;99.90;;;;;;5080202;28;20192;-71
2021/03/23 09:41:20;;;;;;;14.20;7.93;;;9.40;99.90;;;;;;5080887;28;20444;-71
2021/03/23 09:43:47;;;;;;;12.07;7.37;;;9.40;99.90;;;;;;5080693;28;20483;-72
2021/03/23 09:46:38;;;;;;;11.93;6.93;;;9.60;99.90;;;;;;5079521;28;20412;-70
2021/03/23 09:49:16;;;;;;;12.40;8.10;;;9.60;99.90;;;;;;5079342;28;20872;-72
2021/03/23 09:51:54;;;;;;;15.23;8.40;;;10.00;99.90;;;;;;5080691;28;20510;-71
2021/03/23 09:54:27;;;;;;;13.17;8.70;;;10.10;99.90;;;;;;5080160;28;20520;-71
2021/03/23 09:56:55;;;;;;;18.07;9.90;;;10.10;99.90;;;;;;5077046;28;20425;-72
2021/03/23 09:59:26;;;;;;;14.90;8.83;;;10.10;99.90;;;;;;5081487;28;20499;-72
2021/03/23 10:02:13;;;;;;;14.43;8.17;;;10.20;99.90;;;;;;5079016;28;20450;-72
2021/03/23 10:04:40;;;;;;;16.47;9.50;;;10.40;99.90;;;;;;5079866;28;20421;-71
2021/03/23 10:07:11;;;;;;;14.13;9.57;;;10.30;99.90;;;;;;5079394;28;20420;-72
2021/03/23 10:09:38;;;;;;;13.83;7.23;;;10.10;99.90;;;;;;5079438;28;20465;-72
2021/03/23 10:12:05;;;;;;;15.07;9.30;;;10.20;99.90;;;;;;5081273;28;20529;-70
2021/03/23 10:14:34;;;;;;;18.20;10.53;;;10.30;99.90;;;;;;5078797;28;20418;-71
2021/03/23 10:17:04;;;;;;;14.20;9.73;;;10.20;99.90;;;;;;5081162;28;20790;-72
2021/03/23 10:19:58;;;;;;;22.00;9.50;;;10.10;99.90;;;;;;5078504;28;20421;-72
2021/03/23 10:22:29;;;;;;;19.10;11.10;;;10.10;99.90;;;;;;5072973;28;20457;-72
2021/03/23 10:24:56;;;;;;;20.30;10.37;;;10.20;99.90;;;;;;5088226;28;20434;-72
2021/03/23 10:27:26;;;;;;;18.23;9.13;;;10.40;99.90;;;;;;5085658;28;20500;-71
2021/03/23 10:29:56;;;;;;;15.70;8.70;;;10.30;99.90;;;;;;5081121;28;20994;-72
2021/03/23 10:32:37;;;;;;;19.00;10.13;;;9.90;99.90;;;;;;5082779;28;21010;-71
2021/03/23 10:35:08;;;;;;;15.43;9.90;;;9.90;99.90;;;;;;5084776;28;20987;-72
2021/03/23 10:37:34;;;;;;;13.70;7.83;;;10.00;99.90;;;;;;5080171;28;20423;-72
2021/03/23 10:40:00;;;;;;;9.13;6.13;;;9.90;99.90;;;;;;5076922;28;20962;-71
2021/03/23 10:42:31;;;;;;;11.27;7.47;;;9.80;99.90;;;;;;5081559;28;20712;-72
2021/03/23 10:45:11;;;;;;;10.53;7.10;;;9.90;99.90;;;;;;5078020;28;20182;-70
2021/03/23 10:47:40;;;;;;;9.70;6.20;;;10.00;99.90;;;;;;5081127;28;20438;-70
2021/03/23 10:50:22;;;;;;;10.00;4.33;;;10.10;99.90;;;;;;5075846;28;20941;-69
2021/03/23 10:52:51;;;;;;;8.67;6.30;;;9.90;99.90;;;;;;5074527;28;20844;-70
2021/03/23 10:55:25;;;;;;;9.90;8.30;;;9.80;99.90;;;;;;5081238;28;20420;-69
2021/03/23 10:58:11;;;;;;;8.63;6.47;;;9.70;99.90;;;;;;5079228;28;20431;-70
2021/03/23 11:00:39;;;;;;;8.93;4.90;;;9.60;99.90;;;;;;5081677;28;20427;-70
2021/03/23 11:03:11;;;;;;;7.47;5.90;;;9.70;99.90;;;;;;5081094;28;20421;-71
2021/03/23 11:05:46;;;;;;;6.13;4.80;;;9.70;99.90;;;;;;5082753;28;20417;-69
2021/03/23 11:08:13;;;;;;;7.13;4.83;;;9.70;99.90;;;;;;5082119;28;20451;-70
2021/03/23 11:10:38;;;;;;;13.10;6.30;;;9.60;99.90;;;;;;5082920;28;20539;-70
2021/03/23 11:13:04;;;;;;;9.07;6.10;;;9.50;99.90;;;;;;5084387;28;20911;-70
2021/03/23 11:15:48;;;;;;;12.37;8.37;;;9.60;99.90;;;;;;5082504;28;20567;-70
2021/03/23 11:18:28;;;;;;;19.23;11.40;;;9.70;99.90;;;;;;5082960;28;20184;-70
2021/03/23 11:20:55;;;;;;;13.80;8.20;;;9.80;99.90;;;;;;5081932;28;20455;-71
2021/03/23 11:23:42;;;;;;;16.63;8.50;;;9.90;99.90;;;;;;5083287;28;20425;-70
2021/03/23 11:26:26;;;;;;;13.07;7.43;;;10.00;99.90;;;;;;5085657;28;20414;-71
2021/03/23 11:28:54;;;;;;;18.57;10.80;;;9.80;99.90;;;;;;5090185;28;20423;-71
2021/03/23 11:31:22;;;;;;;16.43;9.77;;;9.80;99.90;;;;;;5082400;28;20455;-71
2021/03/23 11:33:48;;;;;;;12.87;9.20;;;9.70;99.90;;;;;;5083687;28;20434;-72
2021/03/23 11:36:14;;;;;;;18.53;8.77;;;9.50;99.90;;;;;;5083243;28;20419;-70
2021/03/23 11:38:40;;;;;;;7.70;5.03;;;9.50;99.90;;;;;;5082476;28;20837;-70
2021/03/23 11:41:14;;;;;;;8.97;5.60;;;9.50;99.90;;;;;;5083905;28;20245;-70
2021/03/23 11:43:43;;;;;;;10.53;6.10;;;9.50;99.90;;;;;;5082326;28;20412;-71
2021/03/23 11:46:21;;;;;;;12.00;7.03;;;9.50;99.90;;;;;;5083930;28;20504;-71
2021/03/23 11:48:51;;;;;;;14.87;9.73;;;9.50;99.90;;;;;;5083364;28;20415;-70
2021/03/23 11:51:22;;;;;;;16.33;9.03;;;9.30;99.90;;;;;;5082373;28;20791;-72
2021/03/23 11:53:48;;;;;;;15.17;8.40;;;9.30;99.90;;;;;;5083871;28;20431;-72
2021/03/23 11:56:15;;;;;;;14.30;8.67;;;9.20;99.90;;;;;;5083019;28;20409;-72
2021/03/23 11:58:41;;;;;;;11.13;7.27;;;9.10;99.90;;;;;;5082884;28;20413;-72
2021/03/23 12:01:07;;;;;;;11.90;6.83;;;9.10;99.90;;;;;;5082678;28;20443;-72
2021/03/23 12:03:33;;;;;;;14.23;8.07;;;9.10;99.90;;;;;;5080271;28;20428;-70
2021/03/23 12:06:00;;;;;;;12.40;7.67;;;9.20;99.90;;;;;;5085011;28;20417;-70
2021/03/23 12:08:34;;;;;;;16.20;7.20;;;9.20;99.90;;;;;;5078806;28;20180;-72
2021/03/23 12:11:21;;;;;;;10.83;6.10;;;9.20;99.90;;;;;;5080760;28;20469;-72
2021/03/23 12:14:02;;;;;;;15.67;8.53;;;9.20;99.90;;;;;;5083255;28;20450;-72
2021/03/23 12:16:37;;;;;;;11.90;6.23;;;9.20;99.90;;;;;;5081044;28;20440;-72
2021/03/23 12:19:08;;;;;;;16.07;9.77;;;9.30;99.90;;;;;;5080708;28;20416;-71
2021/03/23 12:21:34;;;;;;;17.60;9.97;;;9.30;99.90;;;;;;5083790;28;20445;-72
2021/03/23 12:24:00;;;;;;;12.67;8.63;;;9.30;99.90;;;;;;5080308;28;20460;-71
2021/03/23 12:26:26;;;;;;;14.73;9.07;;;9.40;99.90;;;;;;5082215;28;20992;-73
2021/03/23 12:28:54;;;;;;;12.93;8.13;;;9.40;99.90;;;;;;5079640;28;20444;-73
2021/03/23 12:31:20;;;;;;;16.60;7.87;;;9.50;99.90;;;;;;5082393;28;20441;-69
2021/03/23 12:33:46;;;;;;;13.20;6.73;;;9.50;99.90;;;;;;5080465;28;20520;-72
2021/03/23 12:36:14;;;;;;;8.47;5.90;;;9.40;99.90;;;;;;5080990;28;20203;-73
2021/03/23 12:38:42;;;;;;;8.10;5.70;;;9.40;99.90;;;;;;5080501;28;20433;-70
2021/03/23 12:41:18;;;;;;;14.17;6.07;;;9.50;99.90;;;;;;5081224;28;20452;-70
2021/03/23 12:43:48;;;;;;;12.43;7.50;;;9.60;99.90;;;;;;5090200;28;20418;-71
2021/03/23 12:46:14;;;;;;;9.20;5.87;;;9.60;99.90;;;;;;5081930;28;20452;-70
2021/03/23 12:48:39;;;;;;;10.13;6.43;;;9.70;99.90;;;;;;5081415;28;20867;-72
2021/03/23 12:51:06;;;;;;;12.80;7.60;;;9.80;99.90;;;;;;5082930;28;20728;-70
2021/03/23 12:53:32;;;;;;;10.40;7.00;;;9.60;99.90;;;;;;5080457;28;20175;-70
2021/03/23 12:55:58;;;;;;;13.47;5.87;;;9.60;99.90;;;;;;5083320;28;20452;-71
2021/03/23 12:58:32;;;;;;;11.60;7.23;;;9.60;99.90;;;;;;5080310;28;20416;-70
2021/03/23 13:00:58;;;;;;;11.87;6.40;;;9.70;99.90;;;;;;5079790;28;20306;-71
2021/03/23 13:03:24;;;;;;;11.90;6.90;;;9.50;99.90;;;;;;5082664;28;20453;-70
2021/03/23 13:05:52;;;;;;;16.97;7.43;;;9.50;99.90;;;;;;5080584;28;20472;-69